sensor_id;sensor_type;location;lat;lon;timestamp;pressure;altitude;pressure_sealevel;temperature;humidity
49108;BME280;36693;47.666;-2.774;2022-08-19T00:01:04;101509.95;;;23.20;50.18
49108;BME280;36693;47.666;-2.774;2022-08-19T00:03:32;101516.45;;;22.60;52.01
49108;BME280;36693;47.666;-2.774;2022-08-19T00:06:00;101519.88;;;22.81;52.14
49108;BME280;36693;47.666;-2.774;2022-08-19T00:08:28;101513.56;;;22.58;52.86
49108;BME280;36693;47.666;-2.774;2022-08-19T00:10:55;101516.33;;;22.53;53.09
49108;BME280;36693;47.666;-2.774;2022-08-19T00:13:23;101513.86;;;22.77;52.47
49108;BME280;36693;47.666;-2.774;2022-08-19T00:15:51;101512.91;;;22.37;52.86
49108;BME280;36693;47.666;-2.774;2022-08-19T00:18:19;101506.78;;;22.57;52.89
49108;BME280;36693;47.666;-2.774;2022-08-19T00:20:46;101506.43;;;22.24;53.50
49108;BME280;36693;47.666;-2.774;2022-08-19T00:23:14;101503.34;;;21.86;54.30
49108;BME280;36693;47.666;-2.774;2022-08-19T00:25:42;101501.23;;;22.18;53.73
49108;BME280;36693;47.666;-2.774;2022-08-19T00:28:10;101500.65;;;22.07;52.93
49108;BME280;36693;47.666;-2.774;2022-08-19T00:30:37;101497.58;;;22.57;52.57
49108;BME280;36693;47.666;-2.774;2022-08-19T00:33:06;101499.57;;;21.67;54.38
49108;BME280;36693;47.666;-2.774;2022-08-19T00:35:34;101496.83;;;21.35;55.05
49108;BME280;36693;47.666;-2.774;2022-08-19T00:38:02;101496.88;;;21.62;54.53
49108;BME280;36693;47.666;-2.774;2022-08-19T00:40:29;101494.45;;;21.72;54.23
49108;BME280;36693;47.666;-2.774;2022-08-19T00:42:57;101486.98;;;21.86;53.97
49108;BME280;36693;47.666;-2.774;2022-08-19T00:45:27;101485.64;;;22.04;53.60
49108;BME280;36693;47.666;-2.774;2022-08-19T00:47:55;101484.71;;;22.03;52.55
49108;BME280;36693;47.666;-2.774;2022-08-19T00:50:24;101482.76;;;22.04;53.51
49108;BME280;36693;47.666;-2.774;2022-08-19T00:52:52;101480.56;;;21.84;53.99
49108;BME280;36693;47.666;-2.774;2022-08-19T00:55:23;101485.22;;;22.36;52.47
49108;BME280;36693;47.666;-2.774;2022-08-19T00:57:55;101482.29;;;22.49;52.47
49108;BME280;36693;47.666;-2.774;2022-08-19T01:00:25;101477.74;;;22.37;52.67
49108;BME280;36693;47.666;-2.774;2022-08-19T01:02:52;101475.99;;;21.57;54.11
49108;BME280;36693;47.666;-2.774;2022-08-19T01:05:22;101475.74;;;21.71;53.90
49108;BME280;36693;47.666;-2.774;2022-08-19T01:07:51;101475.64;;;21.96;53.36
49108;BME280;36693;47.666;-2.774;2022-08-19T01:10:21;101474.41;;;22.47;51.43
49108;BME280;36693;47.666;-2.774;2022-08-19T01:12:50;101477.49;;;21.92;52.89
49108;BME280;36693;47.666;-2.774;2022-08-19T01:15:21;101473.37;;;21.06;55.43
49108;BME280;36693;47.666;-2.774;2022-08-19T01:17:51;101474.85;;;20.77;56.27
49108;BME280;36693;47.666;-2.774;2022-08-19T01:20:21;101474.49;;;21.24;55.25
49108;BME280;36693;47.666;-2.774;2022-08-19T01:22:52;101474.72;;;21.23;55.62
49108;BME280;36693;47.666;-2.774;2022-08-19T01:25:24;101476.31;;;20.18;57.71
49108;BME280;36693;47.666;-2.774;2022-08-19T01:27:53;101468.05;;;20.70;56.62
49108;BME280;36693;47.666;-2.774;2022-08-19T01:30:26;101467.65;;;21.31;54.60
49108;BME280;36693;47.666;-2.774;2022-08-19T01:32:55;101464.25;;;21.29;55.38
49108;BME280;36693;47.666;-2.774;2022-08-19T01:35:26;101465.02;;;21.42;53.91
49108;BME280;36693;47.666;-2.774;2022-08-19T01:37:56;101465.55;;;21.41;54.35
49108;BME280;36693;47.666;-2.774;2022-08-19T01:40:26;101463.91;;;21.26;54.21
49108;BME280;36693;47.666;-2.774;2022-08-19T01:42:54;101463.98;;;21.89;51.82
49108;BME280;36693;47.666;-2.774;2022-08-19T01:45:24;101461.17;;;22.16;52.01
49108;BME280;36693;47.666;-2.774;2022-08-19T01:47:53;101457.36;;;21.61;53.07
49108;BME280;36693;47.666;-2.774;2022-08-19T01:50:21;101460.63;;;21.88;51.70
49108;BME280;36693;47.666;-2.774;2022-08-19T01:52:49;101459.55;;;22.73;50.37
49108;BME280;36693;47.666;-2.774;2022-08-19T01:55:20;101462.11;;;22.75;50.56
49108;BME280;36693;47.666;-2.774;2022-08-19T01:57:50;101468.47;;;22.03;51.84
49108;BME280;36693;47.666;-2.774;2022-08-19T02:00:23;101469.99;;;22.50;51.03
49108;BME280;36693;47.666;-2.774;2022-08-19T02:02:51;101469.24;;;22.98;49.62
49108;BME280;36693;47.666;-2.774;2022-08-19T02:05:19;101470.10;;;23.20;49.02
49108;BME280;36693;47.666;-2.774;2022-08-19T02:07:47;101471.79;;;22.99;49.32
49108;BME280;36693;47.666;-2.774;2022-08-19T02:10:18;101473.69;;;22.90;49.12
49108;BME280;36693;47.666;-2.774;2022-08-19T02:12:47;101477.00;;;22.77;49.87
49108;BME280;36693;47.666;-2.774;2022-08-19T02:15:15;101476.51;;;22.87;49.33
49108;BME280;36693;47.666;-2.774;2022-08-19T02:17:43;101474.09;;;23.24;48.59
49108;BME280;36693;47.666;-2.774;2022-08-19T02:20:12;101475.84;;;22.97;49.07
49108;BME280;36693;47.666;-2.774;2022-08-19T02:22:39;101473.44;;;23.07;49.88
49108;BME280;36693;47.666;-2.774;2022-08-19T02:25:09;101475.76;;;21.45;52.35
49108;BME280;36693;47.666;-2.774;2022-08-19T02:27:36;101479.52;;;22.17;52.67
49108;BME280;36693;47.666;-2.774;2022-08-19T02:30:07;101478.62;;;21.54;53.34
49108;BME280;36693;47.666;-2.774;2022-08-19T02:32:35;101478.66;;;22.17;52.17
49108;BME280;36693;47.666;-2.774;2022-08-19T02:35:04;101479.29;;;22.54;51.04
49108;BME280;36693;47.666;-2.774;2022-08-19T02:37:32;101479.86;;;22.42;51.80
49108;BME280;36693;47.666;-2.774;2022-08-19T02:40:01;101478.06;;;21.76;53.11
49108;BME280;36693;47.666;-2.774;2022-08-19T02:42:29;101483.84;;;21.57;53.88
49108;BME280;36693;47.666;-2.774;2022-08-19T02:44:57;101482.96;;;21.22;54.56
49108;BME280;36693;47.666;-2.774;2022-08-19T02:47:24;101481.30;;;21.09;55.05
49108;BME280;36693;47.666;-2.774;2022-08-19T02:49:52;101484.71;;;21.60;53.97
49108;BME280;36693;47.666;-2.774;2022-08-19T02:52:20;101486.81;;;21.55;54.16
49108;BME280;36693;47.666;-2.774;2022-08-19T02:54:47;101489.83;;;21.98;53.29
49108;BME280;36693;47.666;-2.774;2022-08-19T02:57:15;101487.93;;;21.21;54.91
49108;BME280;36693;47.666;-2.774;2022-08-19T02:59:43;101485.80;;;21.78;54.83
49108;BME280;36693;47.666;-2.774;2022-08-19T03:02:11;101481.57;;;21.82;54.82
49108;BME280;36693;47.666;-2.774;2022-08-19T03:04:39;101479.71;;;21.62;54.27
49108;BME280;36693;47.666;-2.774;2022-08-19T03:07:07;101476.89;;;21.73;54.00
49108;BME280;36693;47.666;-2.774;2022-08-19T03:09:37;101475.50;;;22.00;54.25
49108;BME280;36693;47.666;-2.774;2022-08-19T03:12:06;101475.44;;;21.92;53.75
49108;BME280;36693;47.666;-2.774;2022-08-19T03:14:34;101477.16;;;22.23;53.26
49108;BME280;36693;47.666;-2.774;2022-08-19T03:17:04;101473.99;;;21.60;55.33
49108;BME280;36693;47.666;-2.774;2022-08-19T03:19:32;101472.68;;;22.00;54.17
49108;BME280;36693;47.666;-2.774;2022-08-19T03:21:59;101470.76;;;23.06;51.90
49108;BME280;36693;47.666;-2.774;2022-08-19T03:24:27;101472.96;;;22.33;52.51
49108;BME280;36693;47.666;-2.774;2022-08-19T03:26:55;101473.59;;;22.45;51.99
49108;BME280;36693;47.666;-2.774;2022-08-19T03:29:24;101476.50;;;22.58;52.50
49108;BME280;36693;47.666;-2.774;2022-08-19T03:31:51;101478.44;;;22.21;52.56
49108;BME280;36693;47.666;-2.774;2022-08-19T03:34:22;101477.13;;;22.85;51.42
49108;BME280;36693;47.666;-2.774;2022-08-19T03:36:50;101485.11;;;23.17;50.83
49108;BME280;36693;47.666;-2.774;2022-08-19T03:39:18;101484.03;;;22.57;52.41
49108;BME280;36693;47.666;-2.774;2022-08-19T03:41:47;101483.39;;;22.55;52.07
49108;BME280;36693;47.666;-2.774;2022-08-19T03:44:17;101482.61;;;22.88;51.41
49108;BME280;36693;47.666;-2.774;2022-08-19T03:46:46;101482.35;;;23.06;51.20
49108;BME280;36693;47.666;-2.774;2022-08-19T03:49:14;101481.98;;;23.41;50.46
49108;BME280;36693;47.666;-2.774;2022-08-19T03:51:43;101483.29;;;22.85;51.35
49108;BME280;36693;47.666;-2.774;2022-08-19T03:54:12;101483.39;;;22.48;52.72
49108;BME280;36693;47.666;-2.774;2022-08-19T03:56:42;101483.74;;;22.54;53.00
49108;BME280;36693;47.666;-2.774;2022-08-19T03:59:13;101481.43;;;22.59;53.05
49108;BME280;36693;47.666;-2.774;2022-08-19T04:01:41;101478.17;;;22.91;52.43
49108;BME280;36693;47.666;-2.774;2022-08-19T04:04:10;101480.97;;;22.30;53.12
49108;BME280;36693;47.666;-2.774;2022-08-19T04:06:38;101482.29;;;22.39;52.97
49108;BME280;36693;47.666;-2.774;2022-08-19T04:09:09;101486.11;;;22.25;52.70
49108;BME280;36693;47.666;-2.774;2022-08-19T04:11:39;101485.97;;;22.78;52.20
49108;BME280;36693;47.666;-2.774;2022-08-19T04:14:09;101485.27;;;22.52;52.20
49108;BME280;36693;47.666;-2.774;2022-08-19T04:16:36;101490.03;;;22.45;53.11
49108;BME280;36693;47.666;-2.774;2022-08-19T04:19:05;101493.76;;;22.19;52.83
49108;BME280;36693;47.666;-2.774;2022-08-19T04:21:33;101491.37;;;22.32;53.13
49108;BME280;36693;47.666;-2.774;2022-08-19T04:24:03;101496.22;;;21.98;53.31
49108;BME280;36693;47.666;-2.774;2022-08-19T04:26:33;101496.68;;;22.62;51.95
49108;BME280;36693;47.666;-2.774;2022-08-19T04:29:06;101497.84;;;22.72;52.72
49108;BME280;36693;47.666;-2.774;2022-08-19T04:31:34;101498.49;;;22.31;53.57
49108;BME280;36693;47.666;-2.774;2022-08-19T04:34:05;101496.03;;;22.63;52.92
49108;BME280;36693;47.666;-2.774;2022-08-19T04:36:35;101497.37;;;22.52;53.16
49108;BME280;36693;47.666;-2.774;2022-08-19T04:39:06;101499.94;;;22.24;53.59
49108;BME280;36693;47.666;-2.774;2022-08-19T04:41:34;101500.26;;;21.31;55.58
49108;BME280;36693;47.666;-2.774;2022-08-19T04:44:02;101501.39;;;21.92;54.99
49108;BME280;36693;47.666;-2.774;2022-08-19T04:46:30;101496.26;;;21.31;55.81
49108;BME280;36693;47.666;-2.774;2022-08-19T04:48:59;101498.66;;;21.71;54.88
49108;BME280;36693;47.666;-2.774;2022-08-19T04:51:28;101499.15;;;22.15;54.14
49108;BME280;36693;47.666;-2.774;2022-08-19T04:53:56;101501.77;;;22.57;53.22
49108;BME280;36693;47.666;-2.774;2022-08-19T04:56:23;101500.50;;;22.00;54.21
49108;BME280;36693;47.666;-2.774;2022-08-19T04:58:52;101500.46;;;21.85;54.66
49108;BME280;36693;47.666;-2.774;2022-08-19T05:01:22;101506.97;;;21.88;54.61
49108;BME280;36693;47.666;-2.774;2022-08-19T05:03:52;101507.14;;;21.14;56.24
49108;BME280;36693;47.666;-2.774;2022-08-19T05:06:21;101508.36;;;22.16;54.14
49108;BME280;36693;47.666;-2.774;2022-08-19T05:08:49;101511.02;;;22.50;53.40
49108;BME280;36693;47.666;-2.774;2022-08-19T05:11:20;101510.14;;;22.72;52.90
49108;BME280;36693;47.666;-2.774;2022-08-19T05:13:48;101507.39;;;22.42;52.42
49108;BME280;36693;47.666;-2.774;2022-08-19T05:16:18;101508.89;;;22.17;52.94
49108;BME280;36693;47.666;-2.774;2022-08-19T05:18:46;101511.80;;;22.37;52.60
49108;BME280;36693;47.666;-2.774;2022-08-19T05:21:17;101511.69;;;22.54;52.75
49108;BME280;36693;47.666;-2.774;2022-08-19T05:23:45;101511.99;;;22.12;53.16
49108;BME280;36693;47.666;-2.774;2022-08-19T05:26:12;101512.26;;;22.31;53.20
49108;BME280;36693;47.666;-2.774;2022-08-19T05:28:40;101516.03;;;22.64;52.57
49108;BME280;36693;47.666;-2.774;2022-08-19T05:31:08;101511.85;;;22.13;54.12
49108;BME280;36693;47.666;-2.774;2022-08-19T05:33:36;101516.07;;;22.44;53.09
49108;BME280;36693;47.666;-2.774;2022-08-19T05:36:04;101515.42;;;21.53;53.81
49108;BME280;36693;47.666;-2.774;2022-08-19T05:38:31;101514.81;;;22.33;53.26
49108;BME280;36693;47.666;-2.774;2022-08-19T05:40:59;101512.41;;;23.17;51.51
49108;BME280;36693;47.666;-2.774;2022-08-19T05:43:26;101518.40;;;22.30;53.17
49108;BME280;36693;47.666;-2.774;2022-08-19T05:45:54;101516.03;;;21.61;55.35
49108;BME280;36693;47.666;-2.774;2022-08-19T05:48:22;101520.85;;;21.67;55.19
49108;BME280;36693;47.666;-2.774;2022-08-19T05:50:50;101522.92;;;22.00;55.03
49108;BME280;36693;47.666;-2.774;2022-08-19T05:53:17;101521.40;;;22.15;54.23
49108;BME280;36693;47.666;-2.774;2022-08-19T05:55:45;101521.00;;;22.39;53.85
49108;BME280;36693;47.666;-2.774;2022-08-19T05:58:12;101523.79;;;22.45;53.22
49108;BME280;36693;47.666;-2.774;2022-08-19T06:00:43;101524.13;;;22.45;54.05
49108;BME280;36693;47.666;-2.774;2022-08-19T06:03:11;101519.23;;;21.82;54.94
49108;BME280;36693;47.666;-2.774;2022-08-19T06:05:39;101519.28;;;21.25;56.69
49108;BME280;36693;47.666;-2.774;2022-08-19T06:08:07;101518.01;;;21.59;56.22
49108;BME280;36693;47.666;-2.774;2022-08-19T06:10:34;101520.07;;;21.87;55.98
49108;BME280;36693;47.666;-2.774;2022-08-19T06:13:03;101517.67;;;22.20;55.28
49108;BME280;36693;47.666;-2.774;2022-08-19T06:15:30;101521.12;;;22.09;55.47
49108;BME280;36693;47.666;-2.774;2022-08-19T06:17:58;101523.05;;;21.70;56.42
49108;BME280;36693;47.666;-2.774;2022-08-19T06:20:26;101520.83;;;22.45;54.91
49108;BME280;36693;47.666;-2.774;2022-08-19T06:22:53;101517.60;;;22.34;54.99
49108;BME280;36693;47.666;-2.774;2022-08-19T06:25:21;101513.76;;;22.10;54.56
49108;BME280;36693;47.666;-2.774;2022-08-19T06:27:48;101514.51;;;23.47;52.38
49108;BME280;36693;47.666;-2.774;2022-08-19T06:30:16;101510.94;;;22.88;52.94
49108;BME280;36693;47.666;-2.774;2022-08-19T06:32:44;101512.54;;;22.97;52.62
49108;BME280;36693;47.666;-2.774;2022-08-19T06:35:11;101518.87;;;22.18;54.51
49108;BME280;36693;47.666;-2.774;2022-08-19T06:37:39;101522.40;;;22.44;54.32
49108;BME280;36693;47.666;-2.774;2022-08-19T06:40:08;101522.03;;;22.23;54.62
49108;BME280;36693;47.666;-2.774;2022-08-19T06:42:36;101522.13;;;22.28;54.18
49108;BME280;36693;47.666;-2.774;2022-08-19T06:45:05;101522.68;;;22.40;54.91
49108;BME280;36693;47.666;-2.774;2022-08-19T06:47:33;101519.48;;;21.79;56.25
49108;BME280;36693;47.666;-2.774;2022-08-19T06:50:02;101519.74;;;22.06;55.74
49108;BME280;36693;47.666;-2.774;2022-08-19T06:52:30;101526.46;;;21.88;56.06
49108;BME280;36693;47.666;-2.774;2022-08-19T06:54:58;101531.11;;;22.43;54.93
49108;BME280;36693;47.666;-2.774;2022-08-19T06:57:27;101532.17;;;21.65;56.46
49108;BME280;36693;47.666;-2.774;2022-08-19T06:59:55;101537.15;;;21.86;56.09
49108;BME280;36693;47.666;-2.774;2022-08-19T07:02:23;101538.54;;;21.77;57.27
49108;BME280;36693;47.666;-2.774;2022-08-19T07:04:50;101538.06;;;21.25;58.42
49108;BME280;36693;47.666;-2.774;2022-08-19T07:07:18;101540.84;;;21.16;57.59
49108;BME280;36693;47.666;-2.774;2022-08-19T07:09:47;101541.78;;;21.76;57.23
49108;BME280;36693;47.666;-2.774;2022-08-19T07:12:15;101544.94;;;22.15;55.55
49108;BME280;36693;47.666;-2.774;2022-08-19T07:14:43;101544.42;;;21.46;56.95
49108;BME280;36693;47.666;-2.774;2022-08-19T07:17:11;101545.52;;;22.17;55.36
49108;BME280;36693;47.666;-2.774;2022-08-19T07:19:40;101538.76;;;21.23;58.96
49108;BME280;36693;47.666;-2.774;2022-08-19T07:22:11;101542.34;;;21.08;58.89
49108;BME280;36693;47.666;-2.774;2022-08-19T07:24:39;101544.65;;;21.24;59.22
49108;BME280;36693;47.666;-2.774;2022-08-19T07:27:07;101549.81;;;21.04;59.66
49108;BME280;36693;47.666;-2.774;2022-08-19T07:29:35;101542.70;;;20.57;60.41
49108;BME280;36693;47.666;-2.774;2022-08-19T07:32:06;101538.81;;;20.25;61.39
49108;BME280;36693;47.666;-2.774;2022-08-19T07:34:33;101540.93;;;21.28;59.94
49108;BME280;36693;47.666;-2.774;2022-08-19T07:37:02;101539.12;;;20.99;60.59
49108;BME280;36693;47.666;-2.774;2022-08-19T07:39:33;101537.53;;;21.28;59.49
49108;BME280;36693;47.666;-2.774;2022-08-19T07:42:05;101535.32;;;22.14;56.78
49108;BME280;36693;47.666;-2.774;2022-08-19T07:44:34;101540.88;;;22.94;55.01
49108;BME280;36693;47.666;-2.774;2022-08-19T07:47:03;101535.93;;;22.38;55.40
49108;BME280;36693;47.666;-2.774;2022-08-19T07:49:32;101537.79;;;22.96;54.25
49108;BME280;36693;47.666;-2.774;2022-08-19T07:52:02;101539.29;;;22.71;54.24
49108;BME280;36693;47.666;-2.774;2022-08-19T07:54:34;101533.90;;;22.38;55.66
49108;BME280;36693;47.666;-2.774;2022-08-19T07:57:05;101541.48;;;22.64;55.15
49108;BME280;36693;47.666;-2.774;2022-08-19T07:59:33;101540.82;;;22.74;54.30
49108;BME280;36693;47.666;-2.774;2022-08-19T08:02:02;101544.42;;;23.08;53.43
49108;BME280;36693;47.666;-2.774;2022-08-19T08:04:31;101540.06;;;23.28;52.72
49108;BME280;36693;47.666;-2.774;2022-08-19T08:06:59;101544.68;;;23.03;53.28
49108;BME280;36693;47.666;-2.774;2022-08-19T08:09:30;101545.63;;;22.60;53.83
49108;BME280;36693;47.666;-2.774;2022-08-19T08:12:00;101542.34;;;23.00;52.66
49108;BME280;36693;47.666;-2.774;2022-08-19T08:14:31;101547.03;;;22.70;53.58
49108;BME280;36693;47.666;-2.774;2022-08-19T08:16:59;101547.41;;;22.60;53.63
49108;BME280;36693;47.666;-2.774;2022-08-19T08:19:28;101547.94;;;22.03;55.15
49108;BME280;36693;47.666;-2.774;2022-08-19T08:21:58;101540.49;;;21.98;56.26
49108;BME280;36693;47.666;-2.774;2022-08-19T08:24:28;101539.14;;;21.46;56.40
49108;BME280;36693;47.666;-2.774;2022-08-19T08:26:58;101541.58;;;22.10;56.10
49108;BME280;36693;47.666;-2.774;2022-08-19T08:29:28;101545.23;;;21.68;56.96
49108;BME280;36693;47.666;-2.774;2022-08-19T08:31:57;101541.19;;;22.06;56.47
49108;BME280;36693;47.666;-2.774;2022-08-19T08:34:25;101545.56;;;22.09;54.98
49108;BME280;36693;47.666;-2.774;2022-08-19T08:36:53;101547.18;;;22.80;52.74
49108;BME280;36693;47.666;-2.774;2022-08-19T08:39:21;101547.35;;;22.43;53.90
49108;BME280;36693;47.666;-2.774;2022-08-19T08:41:53;101547.01;;;22.21;54.64
49108;BME280;36693;47.666;-2.774;2022-08-19T08:44:26;101543.07;;;22.47;54.22
49108;BME280;36693;47.666;-2.774;2022-08-19T08:47:01;101550.17;;;22.72;53.32
49108;BME280;36693;47.666;-2.774;2022-08-19T08:49:36;101554.49;;;22.60;53.00
49108;BME280;36693;47.666;-2.774;2022-08-19T08:52:13;101557.51;;;22.51;53.00
49108;BME280;36693;47.666;-2.774;2022-08-19T08:54:45;101559.05;;;22.62;53.31
49108;BME280;36693;47.666;-2.774;2022-08-19T08:57:19;101561.71;;;21.99;54.26
49108;BME280;36693;47.666;-2.774;2022-08-19T08:59:51;101555.10;;;21.39;56.75
49108;BME280;36693;47.666;-2.774;2022-08-19T09:02:22;101561.34;;;21.76;56.08
49108;BME280;36693;47.666;-2.774;2022-08-19T09:04:50;101565.69;;;21.98;55.18
49108;BME280;36693;47.666;-2.774;2022-08-19T09:07:26;101569.96;;;21.49;57.20
49108;BME280;36693;47.666;-2.774;2022-08-19T09:10:05;101573.75;;;20.75;57.44
49108;BME280;36693;47.666;-2.774;2022-08-19T09:12:42;101577.15;;;21.80;56.19
49108;BME280;36693;47.666;-2.774;2022-08-19T09:15:15;101578.94;;;22.69;53.24
49108;BME280;36693;47.666;-2.774;2022-08-19T09:17:45;101585.79;;;22.91;51.98
49108;BME280;36693;47.666;-2.774;2022-08-19T09:20:18;101584.46;;;22.64;53.32
49108;BME280;36693;47.666;-2.774;2022-08-19T09:22:46;101587.75;;;22.71;52.85
49108;BME280;36693;47.666;-2.774;2022-08-19T09:25:16;101590.55;;;21.70;55.72
49108;BME280;36693;47.666;-2.774;2022-08-19T09:27:44;101588.21;;;21.22;59.49
49108;BME280;36693;47.666;-2.774;2022-08-19T09:30:15;101589.50;;;21.49;60.41
49108;BME280;36693;47.666;-2.774;2022-08-19T09:32:44;101595.99;;;21.04;61.34
49108;BME280;36693;47.666;-2.774;2022-08-19T09:35:13;101592.52;;;20.50;62.26
49108;BME280;36693;47.666;-2.774;2022-08-19T09:37:41;101599.77;;;21.43;61.01
49108;BME280;36693;47.666;-2.774;2022-08-19T09:40:11;101599.74;;;20.39;63.37
49108;BME280;36693;47.666;-2.774;2022-08-19T09:42:39;101600.59;;;20.87;62.27
49108;BME280;36693;47.666;-2.774;2022-08-19T09:45:07;101598.47;;;21.17;61.10
49108;BME280;36693;47.666;-2.774;2022-08-19T09:47:36;101592.62;;;21.46;60.90
49108;BME280;36693;47.666;-2.774;2022-08-19T09:50:05;101588.76;;;21.10;60.96
49108;BME280;36693;47.666;-2.774;2022-08-19T09:52:33;101589.88;;;20.78;61.48
49108;BME280;36693;47.666;-2.774;2022-08-19T09:55:03;101583.89;;;21.53;59.26
49108;BME280;36693;47.666;-2.774;2022-08-19T09:57:30;101582.68;;;21.37;59.74
49108;BME280;36693;47.666;-2.774;2022-08-19T09:59:58;101581.70;;;22.13;57.91
49108;BME280;36693;47.666;-2.774;2022-08-19T10:02:26;101576.50;;;22.20;57.80
49108;BME280;36693;47.666;-2.774;2022-08-19T10:04:53;101577.45;;;21.94;57.98
49108;BME280;36693;47.666;-2.774;2022-08-19T10:07:21;101580.86;;;21.89;57.38
49108;BME280;36693;47.666;-2.774;2022-08-19T10:09:48;101589.88;;;23.08;55.26
49108;BME280;36693;47.666;-2.774;2022-08-19T10:12:16;101584.34;;;22.99;53.86
49108;BME280;36693;47.666;-2.774;2022-08-19T10:14:43;101579.81;;;23.77;52.58
49108;BME280;36693;47.666;-2.774;2022-08-19T10:17:11;101576.17;;;23.67;52.70
49108;BME280;36693;47.666;-2.774;2022-08-19T10:19:39;101580.07;;;23.46;53.12
49108;BME280;36693;47.666;-2.774;2022-08-19T10:22:07;101579.99;;;23.22;53.79
49108;BME280;36693;47.666;-2.774;2022-08-19T10:24:35;101585.20;;;23.00;54.61
49108;BME280;36693;47.666;-2.774;2022-08-19T10:27:03;101582.29;;;22.65;55.32
49108;BME280;36693;47.666;-2.774;2022-08-19T10:29:32;101580.67;;;23.13;54.54
49108;BME280;36693;47.666;-2.774;2022-08-19T10:32:00;101586.26;;;23.53;52.95
49108;BME280;36693;47.666;-2.774;2022-08-19T10:34:30;101588.97;;;24.33;50.78
49108;BME280;36693;47.666;-2.774;2022-08-19T10:36:58;101590.36;;;24.36;50.55
49108;BME280;36693;47.666;-2.774;2022-08-19T10:39:26;101598.01;;;24.33;51.22
49108;BME280;36693;47.666;-2.774;2022-08-19T10:41:55;101594.47;;;24.57;50.36
49108;BME280;36693;47.666;-2.774;2022-08-19T10:44:23;101593.25;;;24.09;50.22
49108;BME280;36693;47.666;-2.774;2022-08-19T10:46:51;101600.10;;;23.60;51.14
49108;BME280;36693;47.666;-2.774;2022-08-19T10:49:19;101600.57;;;24.05;50.37
49108;BME280;36693;47.666;-2.774;2022-08-19T10:51:46;101596.97;;;23.49;50.92
49108;BME280;36693;47.666;-2.774;2022-08-19T10:54:14;101589.36;;;23.17;51.66
49108;BME280;36693;47.666;-2.774;2022-08-19T10:56:42;101592.55;;;23.12;53.37
49108;BME280;36693;47.666;-2.774;2022-08-19T10:59:10;101593.86;;;22.54;52.56
49108;BME280;36693;47.666;-2.774;2022-08-19T11:01:38;101599.77;;;22.82;52.96
49108;BME280;36693;47.666;-2.774;2022-08-19T11:04:06;101604.45;;;22.38;55.05
49108;BME280;36693;47.666;-2.774;2022-08-19T11:06:35;101606.88;;;21.65;57.68
49108;BME280;36693;47.666;-2.774;2022-08-19T11:09:04;101604.63;;;21.69;57.32
49108;BME280;36693;47.666;-2.774;2022-08-19T11:11:32;101604.08;;;21.92;56.83
49108;BME280;36693;47.666;-2.774;2022-08-19T11:14:00;101610.18;;;22.30;55.93
49108;BME280;36693;47.666;-2.774;2022-08-19T11:16:28;101610.43;;;21.97;55.85
49108;BME280;36693;47.666;-2.774;2022-08-19T11:18:58;101607.84;;;22.25;55.02
49108;BME280;36693;47.666;-2.774;2022-08-19T11:21:27;101609.12;;;22.04;54.96
49108;BME280;36693;47.666;-2.774;2022-08-19T11:23:57;101611.04;;;22.59;54.14
49108;BME280;36693;47.666;-2.774;2022-08-19T11:26:25;101610.26;;;22.74;53.33
49108;BME280;36693;47.666;-2.774;2022-08-19T11:28:53;101607.71;;;22.35;54.13
49108;BME280;36693;47.666;-2.774;2022-08-19T11:31:23;101602.04;;;22.05;54.12
49108;BME280;36693;47.666;-2.774;2022-08-19T11:33:52;101603.81;;;22.58;52.94
49108;BME280;36693;47.666;-2.774;2022-08-19T11:36:21;101599.86;;;22.27;53.97
49108;BME280;36693;47.666;-2.774;2022-08-19T11:38:49;101597.55;;;22.44;54.21
49108;BME280;36693;47.666;-2.774;2022-08-19T11:41:20;101602.13;;;22.62;52.85
49108;BME280;36693;47.666;-2.774;2022-08-19T11:43:48;101595.90;;;22.80;51.73
49108;BME280;36693;47.666;-2.774;2022-08-19T11:46:16;101593.78;;;22.28;51.93
49108;BME280;36693;47.666;-2.774;2022-08-19T11:48:44;101597.32;;;23.29;50.19
49108;BME280;36693;47.666;-2.774;2022-08-19T11:51:15;101600.00;;;23.06;50.48
49108;BME280;36693;47.666;-2.774;2022-08-19T11:53:43;101598.44;;;22.51;52.83
49108;BME280;36693;47.666;-2.774;2022-08-19T11:56:11;101603.36;;;22.40;52.81
49108;BME280;36693;47.666;-2.774;2022-08-19T11:58:40;101607.89;;;22.39;52.50
49108;BME280;36693;47.666;-2.774;2022-08-19T12:01:08;101609.52;;;22.92;52.84
49108;BME280;36693;47.666;-2.774;2022-08-19T12:03:37;101610.72;;;22.89;55.57
49108;BME280;36693;47.666;-2.774;2022-08-19T12:06:07;101614.43;;;21.79;57.90
49108;BME280;36693;47.666;-2.774;2022-08-19T12:08:34;101612.01;;;22.03;57.72
49108;BME280;36693;47.666;-2.774;2022-08-19T12:11:03;101611.30;;;21.83;57.12
49108;BME280;36693;47.666;-2.774;2022-08-19T12:13:31;101609.05;;;21.65;57.56
49108;BME280;36693;47.666;-2.774;2022-08-19T12:15:59;101611.25;;;22.96;54.28
49108;BME280;36693;47.666;-2.774;2022-08-19T12:18:27;101612.35;;;22.72;53.82
49108;BME280;36693;47.666;-2.774;2022-08-19T12:20:54;101613.64;;;22.90;53.84
49108;BME280;36693;47.666;-2.774;2022-08-19T12:23:22;101622.99;;;22.48;54.32
49108;BME280;36693;47.666;-2.774;2022-08-19T12:25:50;101622.72;;;22.87;53.12
49108;BME280;36693;47.666;-2.774;2022-08-19T12:28:20;101618.30;;;22.64;54.78
49108;BME280;36693;47.666;-2.774;2022-08-19T12:30:48;101621.71;;;22.44;54.71
49108;BME280;36693;47.666;-2.774;2022-08-19T12:33:17;101623.57;;;22.07;54.88
49108;BME280;36693;47.666;-2.774;2022-08-19T12:35:46;101624.15;;;22.45;54.03
49108;BME280;36693;47.666;-2.774;2022-08-19T12:38:14;101626.54;;;22.35;54.32
49108;BME280;36693;47.666;-2.774;2022-08-19T12:40:45;101629.62;;;22.64;54.55
49108;BME280;36693;47.666;-2.774;2022-08-19T12:43:13;101633.18;;;22.33;55.48
49108;BME280;36693;47.666;-2.774;2022-08-19T12:45:41;101636.09;;;22.27;55.21
49108;BME280;36693;47.666;-2.774;2022-08-19T12:48:09;101636.33;;;22.42;55.55